createdAt,value
2024-04-04T00:00:15.543Z,2.13
2024-04-04T00:03:02.684Z,2.17
2024-04-04T00:05:30.617Z,2.20
2024-04-04T00:07:57.790Z,2.24
2024-04-04T00:10:25.710Z,2.27
2024-04-04T00:12:54.126Z,2.29
2024-04-04T00:15:22.248Z,2.34
2024-04-04T00:17:49.402Z,2.39
2024-04-04T00:20:17.128Z,2.45
2024-04-04T00:22:45.459Z,2.48
2024-04-04T00:25:14.618Z,2.51
2024-04-04T00:27:41.794Z,2.55
2024-04-04T00:30:10.198Z,2.59
2024-04-04T00:32:37.412Z,2.62
2024-04-04T00:35:04.972Z,2.66
2024-04-04T00:37:32.165Z,2.68
2024-04-04T00:39:59.356Z,2.69
2024-04-04T00:42:26.654Z,2.69
2024-04-04T00:44:53.849Z,2.69
2024-04-04T00:47:21.324Z,2.70
2024-04-04T00:49:48.880Z,2.72
2024-04-04T00:52:16.384Z,2.75
2024-04-04T00:54:43.836Z,2.77
2024-04-04T00:57:11.031Z,2.79
2024-04-04T00:59:39.507Z,2.81
2024-04-04T01:02:06.980Z,2.83
2024-04-04T01:04:34.227Z,2.83
2024-04-04T01:07:01.634Z,2.84
2024-04-04T01:09:28.846Z,2.83
2024-04-04T01:11:55.984Z,2.82
2024-04-04T01:14:23.297Z,2.80
2024-04-04T01:16:50.475Z,2.80
2024-04-04T01:19:17.778Z,2.78
2024-04-04T01:21:45.246Z,2.76
2024-04-04T01:24:12.441Z,2.74
2024-04-04T01:26:39.588Z,2.70
2024-04-04T01:29:06.985Z,2.66
2024-04-04T01:31:34.209Z,2.63
2024-04-04T01:34:01.568Z,2.60
2024-04-04T01:36:28.769Z,2.56
2024-04-04T01:38:57.716Z,2.52
2024-04-04T01:41:24.961Z,2.50
2024-04-04T01:43:52.197Z,2.49
2024-04-04T01:46:19.422Z,2.47
2024-04-04T01:48:46.600Z,2.45
2024-04-04T01:51:15.240Z,2.43
2024-04-04T01:53:42.442Z,2.40
2024-04-04T01:56:09.596Z,2.38
2024-04-04T01:58:36.757Z,2.38
2024-04-04T02:01:04.218Z,2.35
2024-04-04T02:03:31.402Z,2.33
2024-04-04T02:05:58.582Z,2.29
2024-04-04T02:08:25.790Z,2.27
2024-04-04T02:10:53.114Z,2.25
2024-04-04T02:13:20.564Z,2.24
2024-04-04T02:15:48.228Z,2.22
2024-04-04T02:18:16.499Z,2.18
2024-04-04T02:20:47.012Z,2.17
2024-04-04T02:23:14.313Z,2.19
2024-04-04T02:25:41.482Z,2.20
2024-04-04T02:28:08.637Z,2.22
2024-04-04T02:30:35.912Z,2.25
2024-04-04T02:33:03.383Z,2.27
2024-04-04T02:35:30.621Z,2.29
2024-04-04T02:37:58.326Z,2.31
2024-04-04T02:40:25.481Z,2.32
2024-04-04T02:42:53.515Z,2.35
2024-04-04T02:45:23.011Z,2.36
2024-04-04T02:47:50.213Z,2.36
2024-04-04T02:50:17.834Z,2.38
2024-04-04T02:52:46.224Z,2.38
2024-04-04T02:55:13.565Z,2.37
2024-04-04T02:57:41.019Z,2.36
2024-04-04T03:00:11.926Z,2.35
2024-04-04T03:02:39.100Z,2.35
2024-04-04T03:05:06.963Z,2.37
2024-04-04T03:07:34.123Z,2.39
2024-04-04T03:10:02.005Z,2.42
2024-04-04T03:12:31.327Z,2.44
2024-04-04T03:14:58.977Z,2.47
2024-04-04T03:17:28.301Z,2.50
2024-04-04T03:19:55.517Z,2.52
2024-04-04T03:22:22.692Z,2.55
2024-04-04T03:24:49.903Z,2.58
2024-04-04T03:27:17.134Z,2.63
2024-04-04T03:29:44.326Z,2.67
2024-04-04T03:32:11.527Z,2.70
2024-04-04T03:34:38.761Z,2.74
2024-04-04T03:37:05.968Z,2.77
2024-04-04T03:39:33.110Z,2.81
2024-04-04T03:42:00.376Z,2.84
2024-04-04T03:44:27.555Z,2.85
2024-04-04T03:46:54.794Z,2.87
2024-04-04T03:49:21.954Z,2.89
2024-04-04T03:51:49.300Z,2.92
2024-04-04T03:54:17.405Z,2.92
2024-04-04T03:56:52.552Z,2.94
2024-04-04T03:59:24.510Z,2.96
2024-04-04T04:01:52.771Z,2.97
2024-04-04T04:04:20.242Z,2.98
2024-04-04T04:06:47.379Z,2.99
2024-04-04T04:09:14.544Z,2.96
2024-04-04T04:11:41.706Z,2.94
2024-04-04T04:14:09.306Z,2.92
2024-04-04T04:16:36.881Z,2.90
2024-04-04T04:19:04.133Z,2.91
2024-04-04T04:21:31.449Z,2.89
2024-04-04T04:24:01.115Z,2.90
2024-04-04T04:26:29.200Z,2.91
2024-04-04T04:28:56.458Z,2.95
2024-04-04T04:31:29.016Z,3.00
2024-04-04T04:34:01.324Z,3.00
2024-04-04T04:36:32.266Z,3.00
2024-04-04T04:38:59.555Z,3.02
2024-04-04T04:41:26.850Z,3.03
2024-04-04T04:43:54.057Z,3.04
2024-04-04T04:46:21.535Z,3.07
2024-04-04T04:48:48.723Z,3.08
2024-04-04T04:51:15.910Z,3.07
2024-04-04T04:53:43.149Z,3.07
2024-04-04T04:56:11.510Z,3.07
2024-04-04T04:58:38.720Z,3.09
2024-04-04T05:01:06.371Z,3.10
2024-04-04T05:03:33.513Z,3.10
2024-04-04T05:06:01.381Z,3.12
2024-04-04T05:08:28.569Z,3.13
2024-04-04T05:10:55.748Z,3.14
2024-04-04T05:13:22.892Z,3.14
2024-04-04T05:15:54.524Z,3.13
2024-04-04T05:18:23.120Z,3.14
2024-04-04T05:20:58.614Z,3.17
2024-04-04T05:23:26.107Z,3.21
2024-04-04T05:25:53.802Z,3.22
2024-04-04T05:28:26.721Z,3.22
2024-04-04T05:30:54.927Z,3.19
2024-04-04T05:33:22.217Z,3.23
2024-04-04T05:35:49.478Z,3.27
2024-04-04T05:38:16.938Z,3.30
2024-04-04T05:40:44.245Z,3.33
2024-04-04T05:43:12.038Z,3.34
2024-04-04T05:45:39.420Z,3.36
2024-04-04T05:48:07.135Z,3.36
2024-04-04T05:50:37.306Z,3.37
2024-04-04T05:53:04.697Z,3.38
2024-04-04T05:55:33.312Z,3.41
2024-04-04T05:58:01.846Z,3.45
2024-04-04T06:00:29.280Z,3.49
2024-04-04T06:03:01.335Z,3.53
2024-04-04T06:05:29.039Z,3.57
2024-04-04T06:07:57.846Z,3.58
2024-04-04T06:10:25.156Z,3.59
2024-04-04T06:12:52.342Z,3.59
2024-04-04T06:15:19.535Z,3.64
2024-04-04T06:17:46.801Z,3.73
2024-04-04T06:20:14.898Z,3.81
2024-04-04T06:22:42.104Z,3.84
2024-04-04T06:25:09.422Z,3.89
2024-04-04T06:27:36.705Z,3.97
2024-04-04T06:30:04.570Z,4.04
2024-04-04T06:32:31.948Z,4.09
2024-04-04T06:34:59.364Z,4.14
2024-04-04T06:37:30.169Z,4.16
2024-04-04T06:39:57.475Z,4.21
2024-04-04T06:42:24.818Z,4.26
2024-04-04T06:44:52.901Z,4.30
2024-04-04T06:47:20.185Z,4.33
2024-04-04T06:49:47.525Z,4.40
2024-04-04T06:52:14.871Z,4.46
2024-04-04T06:54:42.183Z,4.50
2024-04-04T06:57:11.616Z,4.53
2024-04-04T06:59:40.403Z,4.53
2024-04-04T07:02:08.080Z,4.31
2024-04-04T07:04:35.332Z,4.18
2024-04-04T07:07:02.559Z,4.17
2024-04-04T07:09:29.705Z,4.16
2024-04-04T07:11:56.971Z,4.15
2024-04-04T07:14:24.421Z,4.14
2024-04-04T07:16:53.346Z,4.17
2024-04-04T07:19:20.615Z,4.21
2024-04-04T07:21:50.042Z,4.22
2024-04-04T07:24:17.222Z,4.22
2024-04-04T07:26:49.269Z,4.22
2024-04-04T07:29:16.548Z,4.25
2024-04-04T07:31:43.929Z,4.26
2024-04-04T07:34:14.958Z,4.26
2024-04-04T07:36:42.947Z,4.26
2024-04-04T07:39:10.360Z,4.29
2024-04-04T07:41:38.027Z,4.29
2024-04-04T07:44:05.271Z,4.29
2024-04-04T07:46:32.493Z,4.29
2024-04-04T07:49:00.255Z,4.41
2024-04-04T07:51:27.897Z,4.46
2024-04-04T07:53:57.878Z,4.53
2024-04-04T07:56:25.048Z,4.58
2024-04-04T07:58:52.301Z,4.70
2024-04-04T08:01:22.019Z,4.79
2024-04-04T08:03:50.736Z,4.77
2024-04-04T08:06:18.121Z,4.78
2024-04-04T08:08:45.348Z,4.78
2024-04-04T08:11:16.981Z,4.80
2024-04-04T08:13:44.522Z,4.79
2024-04-04T08:16:11.770Z,4.77
2024-04-04T08:18:39.110Z,4.79
2024-04-04T08:21:06.605Z,4.78
2024-04-04T08:23:34.657Z,4.81
2024-04-04T08:26:01.870Z,4.82
2024-04-04T08:28:30.115Z,4.84
2024-04-04T08:30:58.868Z,4.88
2024-04-04T08:33:27.070Z,4.88
2024-04-04T08:35:55.279Z,4.84
2024-04-04T08:38:22.843Z,4.83
2024-04-04T08:40:50.441Z,4.79
2024-04-04T08:43:17.804Z,4.75
2024-04-04T08:45:49.762Z,4.71
2024-04-04T08:48:19.237Z,4.71
2024-04-04T08:50:51.015Z,4.75
2024-04-04T08:53:23.304Z,4.85
2024-04-04T08:55:52.201Z,4.96
2024-04-04T08:58:19.538Z,5.03
2024-04-04T09:00:47.197Z,5.07
2024-04-04T09:03:16.757Z,5.17
2024-04-04T09:05:49.694Z,5.30
2024-04-04T09:08:17.580Z,5.46
2024-04-04T09:10:53.768Z,5.60
2024-04-04T09:13:26.207Z,5.73
2024-04-04T09:16:00.762Z,5.84
2024-04-04T09:18:28.584Z,5.89
2024-04-04T09:21:00.318Z,5.94
2024-04-04T09:23:30.853Z,5.98
2024-04-04T09:25:59.680Z,6.03
2024-04-04T09:28:29.180Z,6.11
2024-04-04T09:31:00.649Z,6.24
2024-04-04T09:33:30.013Z,6.36
2024-04-04T09:35:59.313Z,6.43
2024-04-04T09:38:28.018Z,6.49
2024-04-04T09:40:56.731Z,6.54
2024-04-04T09:43:27.100Z,6.58
2024-04-04T09:45:57.297Z,6.69
2024-04-04T09:48:32.630Z,6.82
2024-04-04T09:51:07.268Z,7.00
2024-04-04T09:53:37.792Z,7.17
2024-04-04T09:56:06.438Z,7.32
2024-04-04T09:58:34.796Z,7.42
2024-04-04T10:01:21.935Z,7.52
2024-04-04T10:03:53.194Z,7.64
2024-04-04T10:06:37.391Z,7.76
2024-04-04T10:09:22.288Z,7.85
2024-04-04T10:11:50.970Z,7.93
2024-04-04T10:14:22.774Z,8.04
2024-04-04T10:16:54.232Z,8.17
2024-04-04T10:19:24.660Z,8.30
2024-04-04T10:21:51.924Z,8.37
2024-04-04T10:24:24.357Z,8.43
2024-04-04T10:26:53.378Z,8.50
2024-04-04T10:29:30.636Z,8.58
2024-04-04T10:32:04.991Z,8.56
2024-04-04T10:34:34.361Z,8.57
2024-04-04T10:37:01.990Z,8.70
2024-04-04T10:39:32.498Z,8.89
2024-04-04T10:42:00.810Z,9.24
2024-04-04T10:44:28.620Z,9.66
2024-04-04T10:46:57.347Z,10.11
2024-04-04T10:49:29.176Z,10.56
2024-04-04T10:51:59.518Z,11.07
2024-04-04T10:54:28.791Z,11.75
2024-04-04T10:56:57.651Z,12.48
2024-04-04T10:59:25.785Z,13.04
2024-04-04T11:01:56.123Z,13.21
2024-04-04T11:04:25.306Z,13.23
2024-04-04T11:06:53.001Z,13.23
2024-04-04T11:09:23.178Z,13.28
2024-04-04T11:11:52.193Z,13.37
2024-04-04T11:14:19.872Z,13.45
2024-04-04T11:16:47.437Z,13.51
2024-04-04T11:19:14.990Z,13.51
2024-04-04T11:21:42.244Z,13.46
2024-04-04T11:24:09.656Z,13.33
2024-04-04T11:26:36.794Z,13.18
2024-04-04T11:29:04.320Z,13.06
2024-04-04T11:31:31.557Z,13.12
2024-04-04T11:33:59.281Z,13.39
2024-04-04T11:36:26.549Z,13.31
2024-04-04T11:38:53.750Z,13.17
2024-04-04T11:41:21.166Z,13.02
2024-04-04T11:43:48.383Z,12.88
2024-04-04T11:46:16.496Z,12.81
2024-04-04T11:48:44.246Z,12.71
2024-04-04T11:51:12.225Z,12.57
2024-04-04T11:53:39.455Z,12.43
2024-04-04T11:56:07.656Z,12.31
2024-04-04T11:58:36.841Z,12.16
2024-04-04T12:01:04.322Z,12.00
2024-04-04T12:03:31.622Z,11.83
2024-04-04T12:05:59.646Z,11.67
2024-04-04T12:08:29.987Z,11.55
2024-04-04T12:11:01.474Z,11.41
2024-04-04T12:13:28.696Z,11.25
2024-04-04T12:15:58.846Z,11.07
2024-04-04T12:18:41.993Z,10.90
2024-04-04T12:21:15.377Z,10.79
2024-04-04T12:23:47.176Z,10.90
2024-04-04T12:26:17.764Z,10.91
2024-04-04T12:28:45.004Z,10.98
2024-04-04T12:31:13.602Z,11.12
2024-04-04T12:33:40.828Z,11.32
2024-04-04T12:36:08.092Z,11.46
2024-04-04T12:38:35.316Z,11.52
2024-04-04T12:41:03.415Z,11.50
2024-04-04T12:43:30.612Z,11.43
2024-04-04T12:46:05.258Z,11.34
2024-04-04T12:48:33.417Z,11.27
2024-04-04T12:51:01.415Z,11.24
2024-04-04T12:53:28.662Z,11.28
2024-04-04T12:55:56.412Z,11.48
2024-04-04T12:58:23.704Z,11.85
2024-04-04T13:00:59.258Z,12.23
2024-04-04T13:03:30.902Z,12.44
2024-04-04T13:05:58.769Z,12.54
2024-04-04T13:08:26.152Z,12.61
2024-04-04T13:10:53.310Z,12.65
2024-04-04T13:13:21.264Z,12.64
2024-04-04T13:15:48.709Z,12.79
2024-04-04T13:18:15.888Z,13.37
2024-04-04T13:20:43.098Z,14.30
2024-04-04T13:23:10.282Z,15.40
2024-04-04T13:25:37.588Z,16.66
2024-04-04T13:28:06.274Z,17.85
2024-04-04T13:30:33.574Z,18.75
2024-04-04T13:33:00.904Z,19.52
2024-04-04T13:35:28.355Z,20.40
2024-04-04T13:37:55.546Z,20.89
2024-04-04T13:40:22.805Z,20.88
2024-04-04T13:42:50.146Z,20.41
2024-04-04T13:45:17.434Z,19.72
2024-04-04T13:47:44.755Z,19.02
2024-04-04T13:50:12.067Z,18.40
2024-04-04T13:52:39.247Z,17.91
2024-04-04T13:55:07.116Z,17.45
2024-04-04T13:57:34.988Z,17.10
2024-04-04T14:00:05.280Z,16.92
2024-04-04T14:02:32.838Z,16.71
2024-04-04T14:05:00.171Z,16.62
2024-04-04T14:07:27.960Z,16.98
2024-04-04T14:09:56.523Z,17.47
2024-04-04T14:12:24.713Z,17.47
2024-04-04T14:14:52.250Z,17.41
2024-04-04T14:17:19.417Z,17.41
2024-04-04T14:19:46.618Z,17.44
2024-04-04T14:22:13.963Z,17.54
2024-04-04T14:24:41.362Z,17.60
2024-04-04T14:27:08.586Z,17.57
2024-04-04T14:29:36.149Z,17.56
2024-04-04T14:32:03.816Z,17.97
2024-04-04T14:34:31.031Z,18.47
2024-04-04T14:36:59.257Z,19.43
2024-04-04T14:39:28.978Z,20.27
2024-04-04T14:41:56.841Z,20.98
2024-04-04T14:44:24.083Z,21.74
2024-04-04T14:46:51.429Z,22.28
2024-04-04T14:49:19.704Z,22.37
2024-04-04T14:51:51.574Z,22.31
2024-04-04T14:54:21.268Z,22.02
2024-04-04T14:56:48.770Z,21.55
2024-04-04T14:59:15.987Z,21.61
2024-04-04T15:01:43.290Z,21.82
2024-04-04T15:04:10.528Z,22.18
2024-04-04T15:06:37.789Z,22.78
2024-04-04T15:09:06.490Z,23.29
2024-04-04T15:11:34.523Z,23.50
2024-04-04T15:14:02.849Z,23.64
2024-04-04T15:16:30.065Z,23.67
2024-04-04T15:18:57.297Z,23.55
2024-04-04T15:21:24.650Z,23.54
2024-04-04T15:23:51.840Z,23.67
2024-04-04T15:26:19.034Z,23.84
2024-04-04T15:28:46.270Z,23.90
2024-04-04T15:31:14.127Z,23.77
2024-04-04T15:33:41.280Z,23.79
2024-04-04T15:36:08.532Z,23.93
2024-04-04T15:38:35.710Z,23.75
2024-04-04T15:41:03.021Z,23.02
2024-04-04T15:43:30.212Z,22.28
2024-04-04T15:45:57.390Z,21.50
2024-04-04T15:48:24.873Z,20.74
2024-04-04T15:50:52.114Z,20.10
2024-04-04T15:53:19.726Z,19.49
2024-04-04T15:55:47.819Z,18.94
2024-04-04T15:58:15.209Z,18.47
2024-04-04T16:00:42.857Z,17.95
2024-04-04T16:03:10.053Z,17.47
2024-04-04T16:05:38.948Z,17.05
2024-04-04T16:08:06.882Z,16.68
2024-04-04T16:10:34.091Z,16.31
2024-04-04T16:13:01.932Z,15.94
2024-04-04T16:15:29.587Z,15.63
2024-04-04T16:17:56.756Z,15.33
2024-04-04T16:20:23.958Z,15.10
2024-04-04T16:22:51.087Z,14.85
2024-04-04T16:25:18.703Z,14.62
2024-04-04T16:27:45.932Z,14.43
2024-04-04T16:30:13.115Z,14.22
2024-04-04T16:32:40.394Z,14.04
2024-04-04T16:35:07.655Z,13.85
2024-04-04T16:37:35.365Z,13.70
2024-04-04T16:40:02.611Z,13.54
2024-04-04T16:42:29.859Z,13.41
2024-04-04T16:44:57.047Z,13.26
2024-04-04T16:47:24.406Z,13.12
2024-04-04T16:49:51.589Z,12.99
2024-04-04T16:52:18.788Z,12.87
2024-04-04T16:54:46.050Z,12.75
2024-04-04T16:57:13.236Z,12.65
2024-04-04T16:59:42.430Z,12.55
2024-04-04T17:02:09.678Z,12.46
2024-04-04T17:04:36.846Z,12.38
2024-04-04T17:07:04.882Z,12.30
2024-04-04T17:09:32.158Z,12.23
2024-04-04T17:11:59.308Z,12.15
2024-04-04T17:14:27.360Z,12.06
2024-04-04T17:16:54.569Z,12.00
2024-04-04T17:19:22.213Z,11.95
2024-04-04T17:21:49.492Z,11.91
2024-04-04T17:24:16.686Z,11.86
2024-04-04T17:26:46.292Z,11.81
2024-04-04T17:29:13.497Z,11.76
2024-04-04T17:31:42.215Z,11.71
2024-04-04T17:34:09.575Z,11.66
2024-04-04T17:36:39.271Z,11.62
2024-04-04T17:39:07.649Z,11.59
2024-04-04T17:41:34.903Z,11.57
2024-04-04T17:44:04.107Z,11.55
2024-04-04T17:46:31.667Z,11.55
2024-04-04T17:49:01.271Z,11.55
2024-04-04T17:51:28.482Z,11.55
2024-04-04T17:53:55.650Z,11.54
2024-04-04T17:56:22.822Z,11.53
2024-04-04T17:58:50.274Z,11.52
2024-04-04T18:01:17.833Z,11.48
2024-04-04T18:03:45.579Z,11.47
2024-04-04T18:06:12.812Z,11.48
2024-04-04T18:08:40.236Z,11.47
2024-04-04T18:11:07.480Z,11.47
2024-04-04T18:13:37.152Z,11.48
2024-04-04T18:16:04.570Z,11.48
2024-04-04T18:18:32.227Z,11.49
2024-04-04T18:20:59.500Z,11.49
2024-04-04T18:23:26.708Z,11.49
2024-04-04T18:25:53.880Z,11.49
2024-04-04T18:28:21.055Z,11.48
2024-04-04T18:30:50.877Z,11.46
2024-04-04T18:33:18.091Z,11.46
2024-04-04T18:35:45.300Z,11.44
2024-04-04T18:38:12.542Z,11.42
2024-04-04T18:40:39.800Z,11.40
2024-04-04T18:43:06.984Z,11.39
2024-04-04T18:45:34.819Z,11.38
2024-04-04T18:48:02.080Z,11.36
2024-04-04T18:50:30.682Z,11.34
2024-04-04T18:52:58.090Z,11.32
2024-04-04T18:55:25.529Z,11.32
2024-04-04T18:57:52.767Z,11.30
2024-04-04T19:00:20.275Z,11.29
2024-04-04T19:02:47.484Z,11.28
2024-04-04T19:05:14.884Z,11.26
2024-04-04T19:07:42.205Z,11.24
2024-04-04T19:10:09.475Z,11.22
2024-04-04T19:12:36.771Z,11.21
2024-04-04T19:15:06.834Z,11.20
2024-04-04T19:17:34.079Z,11.20
2024-04-04T19:20:05.633Z,11.19
2024-04-04T19:22:32.833Z,11.20
2024-04-04T19:24:59.986Z,11.19
2024-04-04T19:27:27.298Z,11.19
2024-04-04T19:29:54.930Z,11.19
2024-04-04T19:32:22.106Z,11.19
2024-04-04T19:34:49.273Z,11.19
2024-04-04T19:37:16.538Z,11.18
2024-04-04T19:39:43.761Z,11.17
2024-04-04T19:42:11.244Z,11.18
2024-04-04T19:44:38.425Z,11.18
2024-04-04T19:47:05.682Z,11.18
2024-04-04T19:49:33.527Z,11.18
2024-04-04T19:52:01.122Z,11.17
2024-04-04T19:54:28.414Z,11.17
2024-04-04T19:56:55.636Z,11.16
2024-04-04T19:59:24.390Z,11.15
2024-04-04T20:01:53.289Z,11.15
2024-04-04T20:04:20.476Z,11.14
2024-04-04T20:06:47.640Z,11.12
2024-04-04T20:09:14.814Z,11.10
2024-04-04T20:11:41.991Z,11.10
2024-04-04T20:14:09.143Z,11.09
2024-04-04T20:16:37.618Z,11.09
2024-04-04T20:19:04.863Z,11.09
2024-04-04T20:21:32.052Z,11.08
2024-04-04T20:23:59.217Z,11.07
2024-04-04T20:26:26.390Z,11.08
2024-04-04T20:28:55.107Z,11.07
2024-04-04T20:31:22.369Z,11.06
2024-04-04T20:33:50.535Z,11.03
2024-04-04T20:36:17.764Z,11.03
2024-04-04T20:38:44.942Z,11.02
2024-04-04T20:41:12.200Z,11.02
2024-04-04T20:43:39.441Z,11.01
2024-04-04T20:46:06.697Z,11.02
2024-04-04T20:48:34.188Z,11.02
2024-04-04T20:51:01.423Z,11.02
2024-04-04T20:53:28.766Z,11.03
2024-04-04T20:55:56.485Z,11.04
2024-04-04T20:58:24.697Z,11.06
2024-04-04T21:00:52.536Z,11.06
2024-04-04T21:03:19.748Z,11.07
2024-04-04T21:05:46.970Z,11.07
2024-04-04T21:08:14.520Z,11.07
2024-04-04T21:10:41.722Z,11.08
2024-04-04T21:13:08.936Z,11.09
2024-04-04T21:15:36.078Z,11.09
2024-04-04T21:18:10.649Z,11.07
2024-04-04T21:20:39.361Z,11.07
2024-04-04T21:23:06.555Z,11.07
2024-04-04T21:25:34.945Z,11.07
2024-04-04T21:28:02.526Z,11.07
2024-04-04T21:30:31.034Z,11.07
2024-04-04T21:32:58.308Z,11.05
2024-04-04T21:35:25.524Z,11.04
2024-04-04T21:37:52.686Z,11.04
2024-04-04T21:40:19.821Z,11.03
2024-04-04T21:42:47.007Z,11.02
2024-04-04T21:45:14.251Z,11.02
2024-04-04T21:47:41.572Z,11.02
2024-04-04T21:50:09.656Z,11.03
2024-04-04T21:52:36.843Z,11.03
2024-04-04T21:55:04.223Z,11.05
2024-04-04T21:57:33.917Z,11.06
2024-04-04T22:00:01.120Z,11.06
2024-04-04T22:02:28.361Z,11.05
2024-04-04T22:04:56.281Z,11.06
2024-04-04T22:07:23.457Z,11.07
2024-04-04T22:09:50.682Z,11.08
2024-04-04T22:12:17.850Z,11.09
2024-04-04T22:14:44.994Z,11.08
2024-04-04T22:17:13.724Z,11.07
2024-04-04T22:19:40.922Z,11.07
2024-04-04T22:22:08.115Z,11.08
2024-04-04T22:24:35.235Z,11.08
2024-04-04T22:27:02.501Z,11.09
2024-04-04T22:29:30.569Z,11.10
2024-04-04T22:31:57.725Z,11.09
2024-04-04T22:34:24.873Z,11.08
2024-04-04T22:36:53.213Z,11.06
2024-04-04T22:39:21.829Z,11.03
2024-04-04T22:41:48.954Z,10.99
2024-04-04T22:44:16.146Z,10.96
2024-04-04T22:46:43.892Z,10.92
2024-04-04T22:49:11.665Z,10.89
2024-04-04T22:51:38.862Z,10.85
2024-04-04T22:54:06.042Z,10.81
2024-04-04T22:56:33.198Z,10.77
2024-04-04T22:59:00.374Z,10.72
2024-04-04T23:01:27.537Z,10.67
2024-04-04T23:03:54.735Z,10.63
2024-04-04T23:06:22.068Z,10.63
2024-04-04T23:08:49.240Z,10.63
2024-04-04T23:11:16.418Z,10.64
2024-04-04T23:13:43.579Z,10.64
2024-04-04T23:16:10.780Z,10.64
2024-04-04T23:18:39.448Z,10.62
2024-04-04T23:21:06.590Z,10.59
2024-04-04T23:23:33.774Z,10.54
2024-04-04T23:26:00.918Z,10.52
2024-04-04T23:28:28.987Z,10.50
2024-04-04T23:30:56.653Z,10.48
2024-04-04T23:33:23.850Z,10.44
2024-04-04T23:35:53.217Z,10.40
2024-04-04T23:38:20.547Z,10.35
2024-04-04T23:40:48.018Z,10.32
2024-04-04T23:43:15.238Z,10.31
2024-04-04T23:45:42.422Z,10.31
2024-04-04T23:48:09.952Z,10.32
2024-04-04T23:50:37.066Z,10.35
2024-04-04T23:53:04.446Z,10.38
2024-04-04T23:55:31.718Z,10.41
2024-04-04T23:57:59.276Z,10.44
